sensor_id;sensor_type;location;lat;lon;timestamp;P1;durP1;ratioP1;P2;durP2;ratioP2
44270;SDS011;29963;44.594;11.368;2024-01-27T00:00:11;129.10;;;84.75;;
44270;SDS011;29963;44.594;11.368;2024-01-27T00:02:39;126.70;;;85.90;;
44270;SDS011;29963;44.594;11.368;2024-01-27T00:05:04;117.78;;;83.03;;
44270;SDS011;29963;44.594;11.368;2024-01-27T00:07:30;122.38;;;81.72;;
44270;SDS011;29963;44.594;11.368;2024-01-27T00:09:56;117.82;;;83.85;;
44270;SDS011;29963;44.594;11.368;2024-01-27T00:12:23;123.00;;;83.65;;
44270;SDS011;29963;44.594;11.368;2024-01-27T00:14:48;113.35;;;81.82;;
44270;SDS011;29963;44.594;11.368;2024-01-27T00:17:14;111.97;;;79.28;;
44270;SDS011;29963;44.594;11.368;2024-01-27T00:19:40;111.53;;;81.45;;
44270;SDS011;29963;44.594;11.368;2024-01-27T00:22:06;110.53;;;77.10;;
44270;SDS011;29963;44.594;11.368;2024-01-27T00:24:32;99.80;;;71.72;;
44270;SDS011;29963;44.594;11.368;2024-01-27T00:26:58;100.53;;;72.47;;
44270;SDS011;29963;44.594;11.368;2024-01-27T00:29:24;107.28;;;75.97;;
44270;SDS011;29963;44.594;11.368;2024-01-27T00:31:50;105.63;;;75.38;;
44270;SDS011;29963;44.594;11.368;2024-01-27T00:34:15;104.05;;;74.88;;
44270;SDS011;29963;44.594;11.368;2024-01-27T00:36:42;100.93;;;72.97;;
44270;SDS011;29963;44.594;11.368;2024-01-27T00:39:13;96.85;;;69.72;;
44270;SDS011;29963;44.594;11.368;2024-01-27T00:41:42;92.47;;;69.25;;
44270;SDS011;29963;44.594;11.368;2024-01-27T00:44:09;79.78;;;62.15;;
44270;SDS011;29963;44.594;11.368;2024-01-27T00:46:37;73.78;;;57.97;;
44270;SDS011;29963;44.594;11.368;2024-01-27T00:49:03;87.38;;;58.35;;
44270;SDS011;29963;44.594;11.368;2024-01-27T00:51:29;75.22;;;59.35;;
44270;SDS011;29963;44.594;11.368;2024-01-27T00:53:55;70.75;;;57.45;;
44270;SDS011;29963;44.594;11.368;2024-01-27T00:56:21;69.78;;;55.60;;
44270;SDS011;29963;44.594;11.368;2024-01-27T00:58:46;67.82;;;54.33;;
44270;SDS011;29963;44.594;11.368;2024-01-27T01:01:12;65.03;;;53.17;;
44270;SDS011;29963;44.594;11.368;2024-01-27T01:03:38;63.33;;;53.25;;
44270;SDS011;29963;44.594;11.368;2024-01-27T01:06:04;62.00;;;51.45;;
44270;SDS011;29963;44.594;11.368;2024-01-27T01:08:30;71.05;;;54.20;;
44270;SDS011;29963;44.594;11.368;2024-01-27T01:10:56;69.38;;;51.20;;
44270;SDS011;29963;44.594;11.368;2024-01-27T01:13:22;73.68;;;54.40;;
44270;SDS011;29963;44.594;11.368;2024-01-27T01:15:48;69.20;;;55.20;;
44270;SDS011;29963;44.594;11.368;2024-01-27T01:18:13;71.43;;;56.40;;
44270;SDS011;29963;44.594;11.368;2024-01-27T01:20:39;79.15;;;57.35;;
44270;SDS011;29963;44.594;11.368;2024-01-27T01:23:05;70.85;;;55.17;;
44270;SDS011;29963;44.594;11.368;2024-01-27T01:25:30;80.20;;;57.17;;
44270;SDS011;29963;44.594;11.368;2024-01-27T01:27:56;69.50;;;53.72;;
44270;SDS011;29963;44.594;11.368;2024-01-27T01:30:21;71.22;;;53.55;;
44270;SDS011;29963;44.594;11.368;2024-01-27T01:32:47;58.50;;;49.45;;
44270;SDS011;29963;44.594;11.368;2024-01-27T01:35:13;66.65;;;51.97;;
44270;SDS011;29963;44.594;11.368;2024-01-27T01:37:39;66.35;;;53.78;;
44270;SDS011;29963;44.594;11.368;2024-01-27T01:40:05;70.20;;;53.70;;
44270;SDS011;29963;44.594;11.368;2024-01-27T01:42:32;68.20;;;52.35;;
44270;SDS011;29963;44.594;11.368;2024-01-27T01:44:57;66.40;;;52.00;;
44270;SDS011;29963;44.594;11.368;2024-01-27T01:47:23;79.70;;;56.72;;
44270;SDS011;29963;44.594;11.368;2024-01-27T01:49:49;74.47;;;55.88;;
44270;SDS011;29963;44.594;11.368;2024-01-27T01:52:15;72.32;;;55.10;;
44270;SDS011;29963;44.594;11.368;2024-01-27T01:54:49;72.82;;;55.92;;
44270;SDS011;29963;44.594;11.368;2024-01-27T01:57:15;68.25;;;57.40;;
44270;SDS011;29963;44.594;11.368;2024-01-27T01:59:41;68.18;;;53.47;;
44270;SDS011;29963;44.594;11.368;2024-01-27T02:02:08;63.10;;;52.03;;
44270;SDS011;29963;44.594;11.368;2024-01-27T02:04:43;63.10;;;50.08;;
44270;SDS011;29963;44.594;11.368;2024-01-27T02:07:10;57.45;;;47.00;;
44270;SDS011;29963;44.594;11.368;2024-01-27T02:09:36;65.07;;;48.85;;
44270;SDS011;29963;44.594;11.368;2024-01-27T02:12:03;60.13;;;47.55;;
44270;SDS011;29963;44.594;11.368;2024-01-27T02:14:29;65.82;;;48.00;;
44270;SDS011;29963;44.594;11.368;2024-01-27T02:16:55;62.15;;;48.25;;
44270;SDS011;29963;44.594;11.368;2024-01-27T02:19:21;76.00;;;47.70;;
44270;SDS011;29963;44.594;11.368;2024-01-27T02:21:47;64.63;;;46.70;;
44270;SDS011;29963;44.594;11.368;2024-01-27T02:24:12;66.57;;;47.20;;
44270;SDS011;29963;44.594;11.368;2024-01-27T02:26:38;74.13;;;44.83;;
44270;SDS011;29963;44.594;11.368;2024-01-27T02:29:03;59.65;;;44.97;;
44270;SDS011;29963;44.594;11.368;2024-01-27T02:31:29;66.80;;;43.75;;
44270;SDS011;29963;44.594;11.368;2024-01-27T02:33:55;55.28;;;40.47;;
44270;SDS011;29963;44.594;11.368;2024-01-27T02:36:20;53.55;;;42.30;;
44270;SDS011;29963;44.594;11.368;2024-01-27T02:38:46;63.53;;;42.95;;
44270;SDS011;29963;44.594;11.368;2024-01-27T02:41:12;58.20;;;43.58;;
44270;SDS011;29963;44.594;11.368;2024-01-27T02:43:37;61.70;;;42.50;;
44270;SDS011;29963;44.594;11.368;2024-01-27T02:46:05;59.75;;;41.88;;
44270;SDS011;29963;44.594;11.368;2024-01-27T02:48:35;59.17;;;41.83;;
44270;SDS011;29963;44.594;11.368;2024-01-27T02:51:04;59.70;;;43.10;;
44270;SDS011;29963;44.594;11.368;2024-01-27T02:53:30;79.32;;;45.00;;
44270;SDS011;29963;44.594;11.368;2024-01-27T02:55:55;60.47;;;47.92;;
44270;SDS011;29963;44.594;11.368;2024-01-27T02:58:21;75.47;;;46.35;;
44270;SDS011;29963;44.594;11.368;2024-01-27T03:00:47;76.10;;;45.42;;
44270;SDS011;29963;44.594;11.368;2024-01-27T03:03:13;72.25;;;46.03;;
44270;SDS011;29963;44.594;11.368;2024-01-27T03:05:40;65.65;;;47.05;;
44270;SDS011;29963;44.594;11.368;2024-01-27T03:08:05;85.35;;;47.85;;
44270;SDS011;29963;44.594;11.368;2024-01-27T03:10:31;91.43;;;48.08;;
44270;SDS011;29963;44.594;11.368;2024-01-27T03:12:57;70.95;;;48.70;;
44270;SDS011;29963;44.594;11.368;2024-01-27T03:15:23;70.97;;;48.70;;
44270;SDS011;29963;44.594;11.368;2024-01-27T03:17:48;62.78;;;49.97;;
44270;SDS011;29963;44.594;11.368;2024-01-27T03:20:14;80.03;;;48.00;;
44270;SDS011;29963;44.594;11.368;2024-01-27T03:22:39;81.70;;;49.72;;
44270;SDS011;29963;44.594;11.368;2024-01-27T03:25:06;84.40;;;50.72;;
44270;SDS011;29963;44.594;11.368;2024-01-27T03:27:33;72.45;;;49.28;;
44270;SDS011;29963;44.594;11.368;2024-01-27T03:30:00;78.57;;;49.95;;
44270;SDS011;29963;44.594;11.368;2024-01-27T03:32:29;75.90;;;48.97;;
44270;SDS011;29963;44.594;11.368;2024-01-27T03:34:58;81.10;;;49.08;;
44270;SDS011;29963;44.594;11.368;2024-01-27T03:37:24;65.78;;;48.13;;
44270;SDS011;29963;44.594;11.368;2024-01-27T03:39:53;68.88;;;47.17;;
44270;SDS011;29963;44.594;11.368;2024-01-27T03:42:18;70.70;;;50.65;;
44270;SDS011;29963;44.594;11.368;2024-01-27T03:44:44;70.15;;;52.63;;
44270;SDS011;29963;44.594;11.368;2024-01-27T03:47:10;77.00;;;50.92;;
44270;SDS011;29963;44.594;11.368;2024-01-27T03:49:35;68.35;;;47.45;;
44270;SDS011;29963;44.594;11.368;2024-01-27T03:52:01;74.47;;;50.85;;
44270;SDS011;29963;44.594;11.368;2024-01-27T03:54:27;78.05;;;51.05;;
44270;SDS011;29963;44.594;11.368;2024-01-27T03:56:53;70.88;;;48.78;;
44270;SDS011;29963;44.594;11.368;2024-01-27T03:59:19;70.72;;;48.08;;
44270;SDS011;29963;44.594;11.368;2024-01-27T04:01:45;69.75;;;50.25;;
44270;SDS011;29963;44.594;11.368;2024-01-27T04:04:10;78.95;;;47.50;;
44270;SDS011;29963;44.594;11.368;2024-01-27T04:06:37;84.95;;;49.63;;
44270;SDS011;29963;44.594;11.368;2024-01-27T04:09:03;91.18;;;51.60;;
44270;SDS011;29963;44.594;11.368;2024-01-27T04:11:29;71.35;;;47.20;;
44270;SDS011;29963;44.594;11.368;2024-01-27T04:13:54;84.30;;;48.85;;
44270;SDS011;29963;44.594;11.368;2024-01-27T04:16:20;74.88;;;47.70;;
44270;SDS011;29963;44.594;11.368;2024-01-27T04:18:46;84.82;;;50.75;;
44270;SDS011;29963;44.594;11.368;2024-01-27T04:21:12;95.15;;;52.60;;
44270;SDS011;29963;44.594;11.368;2024-01-27T04:23:37;74.43;;;49.70;;
44270;SDS011;29963;44.594;11.368;2024-01-27T04:26:03;71.25;;;48.80;;
44270;SDS011;29963;44.594;11.368;2024-01-27T04:28:31;75.38;;;49.45;;
44270;SDS011;29963;44.594;11.368;2024-01-27T04:30:57;71.32;;;50.28;;
44270;SDS011;29963;44.594;11.368;2024-01-27T04:33:22;69.20;;;50.22;;
44270;SDS011;29963;44.594;11.368;2024-01-27T04:35:48;66.57;;;47.15;;
44270;SDS011;29963;44.594;11.368;2024-01-27T04:38:14;68.85;;;48.60;;
44270;SDS011;29963;44.594;11.368;2024-01-27T04:40:40;74.57;;;52.28;;
44270;SDS011;29963;44.594;11.368;2024-01-27T04:43:05;70.07;;;47.83;;
44270;SDS011;29963;44.594;11.368;2024-01-27T04:45:31;68.90;;;49.42;;
44270;SDS011;29963;44.594;11.368;2024-01-27T04:47:56;63.97;;;47.88;;
44270;SDS011;29963;44.594;11.368;2024-01-27T04:50:22;62.45;;;44.65;;
44270;SDS011;29963;44.594;11.368;2024-01-27T04:52:48;60.13;;;45.28;;
44270;SDS011;29963;44.594;11.368;2024-01-27T04:55:14;72.72;;;44.50;;
44270;SDS011;29963;44.594;11.368;2024-01-27T04:57:39;59.15;;;43.92;;
44270;SDS011;29963;44.594;11.368;2024-01-27T05:00:05;66.35;;;47.22;;
44270;SDS011;29963;44.594;11.368;2024-01-27T05:02:35;59.28;;;44.00;;
44270;SDS011;29963;44.594;11.368;2024-01-27T05:05:01;71.97;;;45.33;;
44270;SDS011;29963;44.594;11.368;2024-01-27T05:07:28;59.25;;;45.03;;
44270;SDS011;29963;44.594;11.368;2024-01-27T05:09:53;63.78;;;44.30;;
44270;SDS011;29963;44.594;11.368;2024-01-27T05:12:19;63.13;;;44.35;;
44270;SDS011;29963;44.594;11.368;2024-01-27T05:14:44;60.15;;;43.20;;
44270;SDS011;29963;44.594;11.368;2024-01-27T05:17:10;66.45;;;43.35;;
44270;SDS011;29963;44.594;11.368;2024-01-27T05:19:36;66.57;;;44.63;;
44270;SDS011;29963;44.594;11.368;2024-01-27T05:22:01;59.72;;;43.50;;
44270;SDS011;29963;44.594;11.368;2024-01-27T05:24:27;66.07;;;42.90;;
44270;SDS011;29963;44.594;11.368;2024-01-27T05:26:53;69.03;;;44.67;;
44270;SDS011;29963;44.594;11.368;2024-01-27T05:29:18;63.00;;;45.30;;
44270;SDS011;29963;44.594;11.368;2024-01-27T05:31:44;58.70;;;44.10;;
44270;SDS011;29963;44.594;11.368;2024-01-27T05:34:13;60.10;;;42.85;;
44270;SDS011;29963;44.594;11.368;2024-01-27T05:36:38;55.78;;;42.90;;
44270;SDS011;29963;44.594;11.368;2024-01-27T05:39:04;61.53;;;45.83;;
44270;SDS011;29963;44.594;11.368;2024-01-27T05:41:30;59.13;;;44.90;;
44270;SDS011;29963;44.594;11.368;2024-01-27T05:43:56;56.10;;;43.33;;
44270;SDS011;29963;44.594;11.368;2024-01-27T05:46:23;64.95;;;45.78;;
44270;SDS011;29963;44.594;11.368;2024-01-27T05:48:49;61.75;;;44.83;;
44270;SDS011;29963;44.594;11.368;2024-01-27T05:51:16;64.72;;;43.92;;
44270;SDS011;29963;44.594;11.368;2024-01-27T05:53:41;61.40;;;44.75;;
44270;SDS011;29963;44.594;11.368;2024-01-27T05:56:07;59.40;;;45.28;;
44270;SDS011;29963;44.594;11.368;2024-01-27T05:58:32;54.58;;;43.60;;
44270;SDS011;29963;44.594;11.368;2024-01-27T06:01:01;58.92;;;44.15;;
44270;SDS011;29963;44.594;11.368;2024-01-27T06:03:27;58.80;;;45.42;;
44270;SDS011;29963;44.594;11.368;2024-01-27T06:05:52;57.65;;;45.08;;
44270;SDS011;29963;44.594;11.368;2024-01-27T06:08:18;54.13;;;43.40;;
44270;SDS011;29963;44.594;11.368;2024-01-27T06:10:44;60.05;;;47.22;;
44270;SDS011;29963;44.594;11.368;2024-01-27T06:13:11;56.65;;;44.33;;
44270;SDS011;29963;44.594;11.368;2024-01-27T06:15:36;58.35;;;45.58;;
44270;SDS011;29963;44.594;11.368;2024-01-27T06:18:02;63.33;;;47.20;;
44270;SDS011;29963;44.594;11.368;2024-01-27T06:20:27;56.95;;;44.08;;
44270;SDS011;29963;44.594;11.368;2024-01-27T06:22:53;57.97;;;44.85;;
44270;SDS011;29963;44.594;11.368;2024-01-27T06:25:20;60.17;;;46.17;;
44270;SDS011;29963;44.594;11.368;2024-01-27T06:27:46;66.88;;;46.50;;
44270;SDS011;29963;44.594;11.368;2024-01-27T06:30:12;55.95;;;44.85;;
44270;SDS011;29963;44.594;11.368;2024-01-27T06:32:38;60.67;;;47.05;;
44270;SDS011;29963;44.594;11.368;2024-01-27T06:35:04;56.03;;;44.55;;
44270;SDS011;29963;44.594;11.368;2024-01-27T06:37:30;60.28;;;46.15;;
44270;SDS011;29963;44.594;11.368;2024-01-27T06:39:56;60.13;;;45.40;;
44270;SDS011;29963;44.594;11.368;2024-01-27T06:42:24;61.78;;;46.35;;
44270;SDS011;29963;44.594;11.368;2024-01-27T06:44:50;60.92;;;47.25;;
44270;SDS011;29963;44.594;11.368;2024-01-27T06:47:15;70.38;;;48.10;;
44270;SDS011;29963;44.594;11.368;2024-01-27T06:49:41;63.90;;;47.88;;
44270;SDS011;29963;44.594;11.368;2024-01-27T06:52:07;69.72;;;50.92;;
44270;SDS011;29963;44.594;11.368;2024-01-27T06:54:32;68.85;;;50.13;;
44270;SDS011;29963;44.594;11.368;2024-01-27T06:57:01;68.78;;;50.00;;
44270;SDS011;29963;44.594;11.368;2024-01-27T06:59:27;70.20;;;52.25;;
44270;SDS011;29963;44.594;11.368;2024-01-27T07:01:52;78.15;;;55.80;;
44270;SDS011;29963;44.594;11.368;2024-01-27T07:04:18;77.80;;;53.97;;
44270;SDS011;29963;44.594;11.368;2024-01-27T07:06:43;82.90;;;56.45;;
44270;SDS011;29963;44.594;11.368;2024-01-27T07:09:09;85.90;;;58.80;;
44270;SDS011;29963;44.594;11.368;2024-01-27T07:11:36;85.85;;;57.05;;
44270;SDS011;29963;44.594;11.368;2024-01-27T07:14:05;90.60;;;59.13;;
44270;SDS011;29963;44.594;11.368;2024-01-27T07:16:36;81.93;;;59.40;;
44270;SDS011;29963;44.594;11.368;2024-01-27T07:19:02;89.90;;;61.65;;
44270;SDS011;29963;44.594;11.368;2024-01-27T07:21:27;91.00;;;62.00;;
44270;SDS011;29963;44.594;11.368;2024-01-27T07:23:54;82.28;;;57.42;;
44270;SDS011;29963;44.594;11.368;2024-01-27T07:26:19;93.20;;;61.08;;
44270;SDS011;29963;44.594;11.368;2024-01-27T07:28:45;94.60;;;61.38;;
44270;SDS011;29963;44.594;11.368;2024-01-27T07:31:10;96.88;;;62.72;;
44270;SDS011;29963;44.594;11.368;2024-01-27T07:33:37;102.28;;;65.80;;
44270;SDS011;29963;44.594;11.368;2024-01-27T07:36:03;101.72;;;65.65;;
44270;SDS011;29963;44.594;11.368;2024-01-27T07:38:29;101.70;;;66.63;;
44270;SDS011;29963;44.594;11.368;2024-01-27T07:40:55;105.93;;;62.53;;
44270;SDS011;29963;44.594;11.368;2024-01-27T07:43:20;109.85;;;65.15;;
44270;SDS011;29963;44.594;11.368;2024-01-27T07:45:46;107.75;;;66.00;;
44270;SDS011;29963;44.594;11.368;2024-01-27T07:48:11;100.28;;;63.55;;
44270;SDS011;29963;44.594;11.368;2024-01-27T07:50:37;102.35;;;63.78;;
44270;SDS011;29963;44.594;11.368;2024-01-27T07:53:03;104.80;;;62.00;;
44270;SDS011;29963;44.594;11.368;2024-01-27T07:55:29;103.68;;;59.88;;
44270;SDS011;29963;44.594;11.368;2024-01-27T07:57:54;96.72;;;58.45;;
44270;SDS011;29963;44.594;11.368;2024-01-27T08:00:20;103.53;;;65.88;;
44270;SDS011;29963;44.594;11.368;2024-01-27T08:02:45;89.47;;;60.05;;
44270;SDS011;29963;44.594;11.368;2024-01-27T08:05:11;89.63;;;59.90;;
44270;SDS011;29963;44.594;11.368;2024-01-27T08:07:37;91.15;;;59.35;;
44270;SDS011;29963;44.594;11.368;2024-01-27T08:10:02;89.95;;;59.75;;
44270;SDS011;29963;44.594;11.368;2024-01-27T08:12:29;79.55;;;54.20;;
44270;SDS011;29963;44.594;11.368;2024-01-27T08:14:55;78.40;;;52.80;;
44270;SDS011;29963;44.594;11.368;2024-01-27T08:17:20;79.45;;;55.45;;
44270;SDS011;29963;44.594;11.368;2024-01-27T08:19:46;79.95;;;51.08;;
44270;SDS011;29963;44.594;11.368;2024-01-27T08:22:13;78.55;;;50.80;;
44270;SDS011;29963;44.594;11.368;2024-01-27T08:24:38;82.97;;;52.92;;
44270;SDS011;29963;44.594;11.368;2024-01-27T08:27:04;80.50;;;51.42;;
44270;SDS011;29963;44.594;11.368;2024-01-27T08:29:33;83.47;;;53.55;;
44270;SDS011;29963;44.594;11.368;2024-01-27T08:31:58;78.28;;;51.65;;
44270;SDS011;29963;44.594;11.368;2024-01-27T08:34:24;81.78;;;51.60;;
44270;SDS011;29963;44.594;11.368;2024-01-27T08:36:50;76.85;;;50.58;;
44270;SDS011;29963;44.594;11.368;2024-01-27T08:39:16;78.00;;;50.85;;
44270;SDS011;29963;44.594;11.368;2024-01-27T08:41:45;77.32;;;53.53;;
44270;SDS011;29963;44.594;11.368;2024-01-27T08:44:10;82.35;;;56.45;;
44270;SDS011;29963;44.594;11.368;2024-01-27T08:49:20;97.70;;;62.95;;
44270;SDS011;29963;44.594;11.368;2024-01-27T08:51:46;94.80;;;63.13;;
44270;SDS011;29963;44.594;11.368;2024-01-27T08:54:12;88.45;;;60.30;;
44270;SDS011;29963;44.594;11.368;2024-01-27T08:56:40;101.05;;;71.63;;
44270;SDS011;29963;44.594;11.368;2024-01-27T08:59:06;96.43;;;65.75;;
44270;SDS011;29963;44.594;11.368;2024-01-27T09:01:31;115.68;;;75.90;;
44270;SDS011;29963;44.594;11.368;2024-01-27T09:03:57;113.78;;;74.75;;
44270;SDS011;29963;44.594;11.368;2024-01-27T09:06:23;111.43;;;76.32;;
44270;SDS011;29963;44.594;11.368;2024-01-27T09:08:48;108.65;;;77.72;;
44270;SDS011;29963;44.594;11.368;2024-01-27T09:11:14;111.85;;;73.57;;
44270;SDS011;29963;44.594;11.368;2024-01-27T09:13:40;99.55;;;69.82;;
44270;SDS011;29963;44.594;11.368;2024-01-27T09:16:05;100.07;;;71.30;;
44270;SDS011;29963;44.594;11.368;2024-01-27T09:18:31;104.82;;;71.32;;
44270;SDS011;29963;44.594;11.368;2024-01-27T09:20:57;113.55;;;74.90;;
44270;SDS011;29963;44.594;11.368;2024-01-27T09:23:22;108.20;;;72.57;;
44270;SDS011;29963;44.594;11.368;2024-01-27T09:25:48;105.25;;;73.45;;
44270;SDS011;29963;44.594;11.368;2024-01-27T09:28:13;104.70;;;74.55;;
44270;SDS011;29963;44.594;11.368;2024-01-27T09:30:40;114.60;;;75.40;;
44270;SDS011;29963;44.594;11.368;2024-01-27T09:33:06;105.38;;;72.25;;
44270;SDS011;29963;44.594;11.368;2024-01-27T09:35:32;103.72;;;75.50;;
44270;SDS011;29963;44.594;11.368;2024-01-27T09:37:57;108.10;;;76.30;;
44270;SDS011;29963;44.594;11.368;2024-01-27T09:40:23;103.45;;;76.10;;
44270;SDS011;29963;44.594;11.368;2024-01-27T09:42:52;107.18;;;78.30;;
44270;SDS011;29963;44.594;11.368;2024-01-27T09:45:18;110.00;;;76.82;;
44270;SDS011;29963;44.594;11.368;2024-01-27T09:47:45;102.03;;;75.13;;
44270;SDS011;29963;44.594;11.368;2024-01-27T09:50:11;105.15;;;74.18;;
44270;SDS011;29963;44.594;11.368;2024-01-27T09:52:37;108.70;;;76.53;;
44270;SDS011;29963;44.594;11.368;2024-01-27T09:55:03;99.18;;;73.95;;
44270;SDS011;29963;44.594;11.368;2024-01-27T09:57:29;111.15;;;77.10;;
44270;SDS011;29963;44.594;11.368;2024-01-27T09:59:55;108.13;;;75.13;;
44270;SDS011;29963;44.594;11.368;2024-01-27T10:02:22;102.78;;;75.10;;
44270;SDS011;29963;44.594;11.368;2024-01-27T10:04:49;104.05;;;74.57;;
44270;SDS011;29963;44.594;11.368;2024-01-27T10:07:16;101.63;;;73.15;;
44270;SDS011;29963;44.594;11.368;2024-01-27T10:09:42;103.93;;;73.43;;
44270;SDS011;29963;44.594;11.368;2024-01-27T10:12:08;109.30;;;72.70;;
44270;SDS011;29963;44.594;11.368;2024-01-27T10:14:41;107.88;;;74.75;;
44270;SDS011;29963;44.594;11.368;2024-01-27T10:17:10;107.38;;;75.47;;
44270;SDS011;29963;44.594;11.368;2024-01-27T10:19:36;102.90;;;75.45;;
44270;SDS011;29963;44.594;11.368;2024-01-27T10:22:02;101.53;;;72.53;;
44270;SDS011;29963;44.594;11.368;2024-01-27T10:24:29;106.63;;;72.15;;
44270;SDS011;29963;44.594;11.368;2024-01-27T10:27:02;103.72;;;74.70;;
44270;SDS011;29963;44.594;11.368;2024-01-27T10:29:29;94.78;;;70.30;;
44270;SDS011;29963;44.594;11.368;2024-01-27T10:32:10;101.00;;;74.45;;
44270;SDS011;29963;44.594;11.368;2024-01-27T10:34:36;100.10;;;72.28;;
44270;SDS011;29963;44.594;11.368;2024-01-27T10:37:02;92.80;;;70.78;;
44270;SDS011;29963;44.594;11.368;2024-01-27T10:39:27;95.43;;;68.93;;
44270;SDS011;29963;44.594;11.368;2024-01-27T10:41:53;91.15;;;68.55;;
44270;SDS011;29963;44.594;11.368;2024-01-27T10:44:19;95.40;;;70.88;;
44270;SDS011;29963;44.594;11.368;2024-01-27T10:46:46;92.35;;;67.68;;
44270;SDS011;29963;44.594;11.368;2024-01-27T10:49:13;94.20;;;68.80;;
44270;SDS011;29963;44.594;11.368;2024-01-27T10:54:36;92.43;;;67.63;;
44270;SDS011;29963;44.594;11.368;2024-01-27T10:57:03;88.35;;;66.50;;
44270;SDS011;29963;44.594;11.368;2024-01-27T10:59:30;85.32;;;65.90;;
44270;SDS011;29963;44.594;11.368;2024-01-27T11:01:56;84.75;;;63.53;;
44270;SDS011;29963;44.594;11.368;2024-01-27T11:04:23;84.47;;;62.40;;
44270;SDS011;29963;44.594;11.368;2024-01-27T11:06:49;82.97;;;58.55;;
44270;SDS011;29963;44.594;11.368;2024-01-27T11:09:15;84.15;;;60.85;;
44270;SDS011;29963;44.594;11.368;2024-01-27T11:11:43;85.53;;;62.67;;
44270;SDS011;29963;44.594;11.368;2024-01-27T11:14:10;85.18;;;62.28;;
44270;SDS011;29963;44.594;11.368;2024-01-27T11:16:36;77.35;;;57.78;;
44270;SDS011;29963;44.594;11.368;2024-01-27T11:19:08;79.75;;;59.88;;
44270;SDS011;29963;44.594;11.368;2024-01-27T11:21:35;80.90;;;59.05;;
44270;SDS011;29963;44.594;11.368;2024-01-27T11:24:01;78.07;;;58.97;;
44270;SDS011;29963;44.594;11.368;2024-01-27T11:26:36;78.88;;;57.63;;
44270;SDS011;29963;44.594;11.368;2024-01-27T11:29:06;75.72;;;56.70;;
44270;SDS011;29963;44.594;11.368;2024-01-27T11:31:32;77.18;;;58.15;;
44270;SDS011;29963;44.594;11.368;2024-01-27T11:33:58;76.20;;;57.42;;
44270;SDS011;29963;44.594;11.368;2024-01-27T11:36:23;88.20;;;64.63;;
44270;SDS011;29963;44.594;11.368;2024-01-27T11:38:50;79.93;;;60.50;;
44270;SDS011;29963;44.594;11.368;2024-01-27T11:41:23;85.75;;;60.70;;
44270;SDS011;29963;44.594;11.368;2024-01-27T11:43:56;86.53;;;61.85;;
44270;SDS011;29963;44.594;11.368;2024-01-27T11:46:24;86.53;;;60.70;;
44270;SDS011;29963;44.594;11.368;2024-01-27T11:48:50;79.35;;;60.78;;
44270;SDS011;29963;44.594;11.368;2024-01-27T11:51:17;82.15;;;59.38;;
44270;SDS011;29963;44.594;11.368;2024-01-27T11:53:44;83.22;;;59.13;;
44270;SDS011;29963;44.594;11.368;2024-01-27T11:56:10;81.85;;;59.92;;
44270;SDS011;29963;44.594;11.368;2024-01-27T11:58:36;81.90;;;59.65;;
44270;SDS011;29963;44.594;11.368;2024-01-27T12:01:01;75.20;;;59.80;;
44270;SDS011;29963;44.594;11.368;2024-01-27T12:03:27;82.57;;;60.15;;
44270;SDS011;29963;44.594;11.368;2024-01-27T12:05:54;82.72;;;58.72;;
44270;SDS011;29963;44.594;11.368;2024-01-27T12:08:20;79.97;;;58.75;;
44270;SDS011;29963;44.594;11.368;2024-01-27T12:10:45;80.40;;;59.30;;
44270;SDS011;29963;44.594;11.368;2024-01-27T12:13:11;88.03;;;61.22;;
44270;SDS011;29963;44.594;11.368;2024-01-27T12:15:37;80.70;;;60.58;;
44270;SDS011;29963;44.594;11.368;2024-01-27T12:18:04;82.00;;;60.28;;
44270;SDS011;29963;44.594;11.368;2024-01-27T12:20:30;85.18;;;58.47;;
44270;SDS011;29963;44.594;11.368;2024-01-27T12:23:02;78.05;;;57.38;;
44270;SDS011;29963;44.594;11.368;2024-01-27T12:25:29;85.90;;;60.20;;
44270;SDS011;29963;44.594;11.368;2024-01-27T12:27:54;82.82;;;60.85;;
44270;SDS011;29963;44.594;11.368;2024-01-27T12:30:20;82.35;;;59.05;;
44270;SDS011;29963;44.594;11.368;2024-01-27T12:32:46;81.07;;;61.10;;
44270;SDS011;29963;44.594;11.368;2024-01-27T12:35:12;86.95;;;61.08;;
44270;SDS011;29963;44.594;11.368;2024-01-27T12:37:38;88.50;;;62.75;;
44270;SDS011;29963;44.594;11.368;2024-01-27T12:40:17;88.78;;;64.15;;
44270;SDS011;29963;44.594;11.368;2024-01-27T12:42:43;86.07;;;63.15;;
44270;SDS011;29963;44.594;11.368;2024-01-27T12:45:09;85.82;;;62.38;;
44270;SDS011;29963;44.594;11.368;2024-01-27T12:47:34;91.15;;;64.95;;
44270;SDS011;29963;44.594;11.368;2024-01-27T12:50:00;84.00;;;63.85;;
44270;SDS011;29963;44.594;11.368;2024-01-27T12:52:26;88.18;;;64.78;;
44270;SDS011;29963;44.594;11.368;2024-01-27T12:54:52;87.35;;;63.60;;
44270;SDS011;29963;44.594;11.368;2024-01-27T12:57:18;90.57;;;64.07;;
44270;SDS011;29963;44.594;11.368;2024-01-27T12:59:44;85.22;;;65.32;;
44270;SDS011;29963;44.594;11.368;2024-01-27T13:02:10;87.95;;;63.50;;
44270;SDS011;29963;44.594;11.368;2024-01-27T13:04:36;84.68;;;62.83;;
44270;SDS011;29963;44.594;11.368;2024-01-27T13:07:01;87.38;;;63.17;;
44270;SDS011;29963;44.594;11.368;2024-01-27T13:09:27;83.35;;;61.45;;
44270;SDS011;29963;44.594;11.368;2024-01-27T13:11:52;81.13;;;61.97;;
44270;SDS011;29963;44.594;11.368;2024-01-27T13:14:18;85.38;;;64.15;;
44270;SDS011;29963;44.594;11.368;2024-01-27T13:16:45;88.18;;;63.45;;
44270;SDS011;29963;44.594;11.368;2024-01-27T13:19:11;86.78;;;61.22;;
44270;SDS011;29963;44.594;11.368;2024-01-27T13:21:36;86.20;;;62.75;;
44270;SDS011;29963;44.594;11.368;2024-01-27T13:24:02;91.13;;;65.90;;
44270;SDS011;29963;44.594;11.368;2024-01-27T13:26:29;84.03;;;60.13;;
44270;SDS011;29963;44.594;11.368;2024-01-27T13:28:57;87.47;;;62.45;;
44270;SDS011;29963;44.594;11.368;2024-01-27T13:31:24;87.72;;;64.18;;
44270;SDS011;29963;44.594;11.368;2024-01-27T13:33:50;87.30;;;62.70;;
44270;SDS011;29963;44.594;11.368;2024-01-27T13:36:16;87.10;;;64.68;;
44270;SDS011;29963;44.594;11.368;2024-01-27T13:38:41;86.07;;;64.93;;
44270;SDS011;29963;44.594;11.368;2024-01-27T13:41:07;89.93;;;65.32;;
44270;SDS011;29963;44.594;11.368;2024-01-27T13:43:33;92.80;;;67.25;;
44270;SDS011;29963;44.594;11.368;2024-01-27T13:45:59;90.60;;;64.28;;
44270;SDS011;29963;44.594;11.368;2024-01-27T13:48:25;89.18;;;66.47;;
44270;SDS011;29963;44.594;11.368;2024-01-27T13:50:51;95.60;;;70.45;;
44270;SDS011;29963;44.594;11.368;2024-01-27T13:53:17;88.82;;;63.95;;
44270;SDS011;29963;44.594;11.368;2024-01-27T13:55:43;91.03;;;67.75;;
44270;SDS011;29963;44.594;11.368;2024-01-27T13:58:09;90.28;;;65.28;;
44270;SDS011;29963;44.594;11.368;2024-01-27T14:00:35;87.38;;;63.80;;
44270;SDS011;29963;44.594;11.368;2024-01-27T14:03:01;84.55;;;64.07;;
44270;SDS011;29963;44.594;11.368;2024-01-27T14:05:26;82.93;;;62.80;;